Time;durP1;ratioP1;P1;durP2;ratioP2;P2;SDS_P1;SDS_P2;PMS_P1;PMS_P2;Temp;Humidity;BMP_temperature;BMP_pressure;BME280_temperature;BME280_humidity;BME280_pressure;Samples;Min_cycle;Max_cycle;Signal;HPM_P1;HPM_P2
2021/04/01 00:01:17;;;;;;;80.30;30.38;;;;;;;;;;5058235;28;20903;-61
2021/04/01 00:03:46;;;;;;;85.68;30.77;;;;;;;;;;5062625;28;20027;-59
2021/04/01 00:06:13;;;;;;;75.60;29.40;;;;;;;;;;5057592;28;20035;-61
2021/04/01 00:08:42;;;;;;;86.50;29.70;;;;;;;;;;5054551;28;20115;-61
2021/04/01 00:11:10;;;;;;;84.53;32.08;;;;;;;;;;5039983;28;22316;-61
2021/04/01 00:13:38;;;;;;;90.25;31.98;;;;;;;;;;5044174;28;20169;-61
2021/04/01 00:16:05;;;;;;;80.68;31.27;;;;;;;;;;5040119;28;20925;-60
2021/04/01 00:18:33;;;;;;;89.35;32.13;;;;;;;;;;5038602;28;20040;-60
2021/04/01 00:20:59;;;;;;;78.15;29.80;;;;;;;;;;5070987;28;20028;-61
2021/04/01 00:23:24;;;;;;;80.32;30.33;;;;;;;;;;5028116;28;20472;-60
2021/04/01 00:25:50;;;;;;;84.13;31.45;;;;;;;;;;5056090;28;20032;-60
2021/04/01 00:28:18;;;;;;;89.32;32.45;;;;;;;;;;5057593;28;20035;-60
2021/04/01 00:30:43;;;;;;;101.20;32.08;;;;;;;;;;5057660;28;20041;-61
2021/04/01 00:33:12;;;;;;;75.65;31.42;;;;;;;;;;5043646;28;20061;-60
2021/04/01 00:35:39;;;;;;;84.38;31.95;;;;;;;;;;5044428;28;20195;-60
2021/04/01 00:38:05;;;;;;;91.05;30.25;;;;;;;;;;5056092;28;20033;-61
2021/04/01 00:40:30;;;;;;;77.20;27.38;;;;;;;;;;5054455;28;20082;-61
2021/04/01 00:42:58;;;;;;;77.95;30.45;;;;;;;;;;5054767;28;20059;-60
2021/04/01 00:45:28;;;;;;;87.25;31.95;;;;;;;;;;5055627;28;20028;-61
2021/04/01 00:47:58;;;;;;;90.35;31.92;;;;;;;;;;5054221;28;20374;-60
2021/04/01 00:50:26;;;;;;;86.30;31.88;;;;;;;;;;5056365;28;20024;-61
2021/04/01 00:52:51;;;;;;;79.55;29.98;;;;;;;;;;5053714;28;20031;-61
2021/04/01 00:55:17;;;;;;;86.40;32.25;;;;;;;;;;5054610;28;20110;-61
2021/04/01 00:57:52;;;;;;;89.65;33.50;;;;;;;;;;5048758;28;20032;-59
2021/04/01 01:00:21;;;;;;;90.93;31.98;;;;;;;;;;5054356;28;20040;-60
2021/04/01 01:02:56;;;;;;;80.22;31.00;;;;;;;;;;5055983;28;20089;-60
2021/04/01 01:05:38;;;;;;;85.90;31.55;;;;;;;;;;5055385;28;20095;-61
2021/04/01 01:08:13;;;;;;;86.45;29.85;;;;;;;;;;5037456;28;20052;-61
2021/04/01 01:10:39;;;;;;;90.93;33.38;;;;;;;;;;5055108;28;20795;-61
2021/04/01 01:13:09;;;;;;;90.68;34.13;;;;;;;;;;5043397;28;20167;-61
2021/04/01 01:15:37;;;;;;;88.10;31.95;;;;;;;;;;5070444;28;20113;-60
2021/04/01 01:18:03;;;;;;;100.80;35.83;;;;;;;;;;5016528;28;21172;-59
2021/04/01 01:20:29;;;;;;;112.18;39.28;;;;;;;;;;5052214;28;20044;-60
2021/04/01 01:22:54;;;;;;;106.50;37.22;;;;;;;;;;5042457;28;20041;-61
2021/04/01 01:25:23;;;;;;;97.35;36.22;;;;;;;;;;5026923;28;20028;-60
2021/04/01 01:27:51;;;;;;;109.47;38.10;;;;;;;;;;5055770;28;20724;-60
2021/04/01 01:30:18;;;;;;;93.55;35.30;;;;;;;;;;5055111;28;20044;-59
2021/04/01 01:32:49;;;;;;;99.70;37.47;;;;;;;;;;5057908;28;20032;-60
2021/04/01 01:35:19;;;;;;;106.75;37.28;;;;;;;;;;5055318;28;20576;-61
2021/04/01 01:37:47;;;;;;;100.60;38.10;;;;;;;;;;5056169;28;20036;-61
2021/04/01 01:40:15;;;;;;;100.00;37.75;;;;;;;;;;5026249;28;20542;-60
2021/04/01 01:42:40;;;;;;;102.68;35.78;;;;;;;;;;5053856;28;20056;-60
2021/04/01 01:45:06;;;;;;;107.55;38.58;;;;;;;;;;5055590;28;20031;-60
2021/04/01 01:47:33;;;;;;;106.65;37.13;;;;;;;;;;5058188;28;21821;-60
2021/04/01 01:49:59;;;;;;;106.20;37.78;;;;;;;;;;5041732;28;20028;-61
2021/04/01 01:52:27;;;;;;;97.40;36.25;;;;;;;;;;5054969;28;20568;-60
2021/04/01 01:54:52;;;;;;;108.85;39.03;;;;;;;;;;5026101;28;20551;-60
2021/04/01 01:57:20;;;;;;;105.43;37.05;;;;;;;;;;5057901;28;20039;-60
2021/04/01 01:59:46;;;;;;;101.47;35.08;;;;;;;;;;5057031;28;20044;-60
2021/04/01 02:02:12;;;;;;;104.72;38.20;;;;;;;;;;5038829;28;20032;-60
2021/04/01 02:04:40;;;;;;;103.60;35.20;;;;;;;;;;5055849;28;20028;-60
2021/04/01 02:07:10;;;;;;;90.07;34.28;;;;;;;;;;5030750;28;20769;-61
2021/04/01 02:09:44;;;;;;;98.13;36.22;;;;;;;;;;5059597;28;20033;-62
2021/04/01 02:12:12;;;;;;;101.97;34.60;;;;;;;;;;5047417;28;20024;-62
2021/04/01 02:14:42;;;;;;;91.93;34.47;;;;;;;;;;5045424;28;20059;-60
2021/04/01 02:17:15;;;;;;;101.03;36.78;;;;;;;;;;5048358;28;20040;-62
2021/04/01 02:19:43;;;;;;;93.15;33.10;;;;;;;;;;5045578;28;20892;-60
2021/04/01 02:22:09;;;;;;;96.95;35.08;;;;;;;;;;5059793;28;20044;-61
2021/04/01 02:24:39;;;;;;;102.15;36.05;;;;;;;;;;5060046;28;20085;-60
2021/04/01 02:27:05;;;;;;;96.45;34.55;;;;;;;;;;5028794;28;20036;-60
2021/04/01 02:29:33;;;;;;;104.20;36.10;;;;;;;;;;5056701;28;20069;-61
2021/04/01 02:32:01;;;;;;;96.40;34.95;;;;;;;;;;5057669;28;22080;-60
2021/04/01 02:34:29;;;;;;;97.85;34.20;;;;;;;;;;5059003;28;20032;-61
2021/04/01 02:36:59;;;;;;;110.18;38.03;;;;;;;;;;5047660;28;20123;-61
2021/04/01 02:39:28;;;;;;;103.43;36.25;;;;;;;;;;5060794;28;20028;-59
2021/04/01 02:41:53;;;;;;;109.50;37.90;;;;;;;;;;5059964;28;20491;-60
2021/04/01 02:44:21;;;;;;;97.47;34.60;;;;;;;;;;5046473;28;22002;-60
2021/04/01 02:47:08;;;;;;;101.68;34.85;;;;;;;;;;5063242;28;20027;-60
2021/04/01 02:49:36;;;;;;;108.10;37.10;;;;;;;;;;5056571;28;20066;-61
2021/04/01 02:52:03;;;;;;;101.40;37.47;;;;;;;;;;5040125;28;20143;-60
2021/04/01 02:54:31;;;;;;;104.00;36.50;;;;;;;;;;5057449;28;20040;-61
2021/04/01 02:56:58;;;;;;;101.32;35.80;;;;;;;;;;5058345;28;20031;-61
2021/04/01 02:59:24;;;;;;;100.32;35.85;;;;;;;;;;5059816;28;20033;-60
2021/04/01 03:01:50;;;;;;;101.07;38.92;;;;;;;;;;5040756;28;20433;-60
2021/04/01 03:04:16;;;;;;;103.50;39.25;;;;;;;;;;5043436;28;20052;-60
2021/04/01 03:06:43;;;;;;;102.07;36.00;;;;;;;;;;5058218;28;20505;-60
2021/04/01 03:09:09;;;;;;;116.63;39.80;;;;;;;;;;5057263;28;20036;-60
2021/04/01 03:11:37;;;;;;;89.28;35.90;;;;;;;;;;5045295;28;20028;-60
2021/04/01 03:14:03;;;;;;;89.35;34.15;;;;;;;;;;5057301;28;21909;-59
2021/04/01 03:16:28;;;;;;;107.82;35.65;;;;;;;;;;5057285;28;20086;-61
2021/04/01 03:18:56;;;;;;;101.03;35.33;;;;;;;;;;5057133;28;20717;-61
2021/04/01 03:21:25;;;;;;;99.90;33.95;;;;;;;;;;5056166;28;20059;-61
2021/04/01 03:23:53;;;;;;;89.47;31.33;;;;;;;;;;5040952;28;20085;-61
2021/04/01 03:26:19;;;;;;;80.18;29.02;;;;;;;;;;5057427;28;20024;-62
2021/04/01 03:28:45;;;;;;;79.28;31.05;;;;;;;;;;5041925;28;20868;-61
2021/04/01 03:31:10;;;;;;;75.72;29.85;;;;;;;;;;5058736;28;20153;-59
2021/04/01 03:33:36;;;;;;;83.90;31.05;;;;;;;;;;5059271;28;20032;-60
2021/04/01 03:36:05;;;;;;;78.70;31.02;;;;;;;;;;5043374;28;20032;-60
2021/04/01 03:38:30;;;;;;;83.80;30.73;;;;;;;;;;5061587;28;20117;-61
2021/04/01 03:41:00;;;;;;;85.13;30.70;;;;;;;;;;5060222;28;20040;-60
2021/04/01 03:43:29;;;;;;;85.95;31.90;;;;;;;;;;5057206;28;20048;-60
2021/04/01 03:45:55;;;;;;;84.00;30.13;;;;;;;;;;5055864;28;20063;-61
2021/04/01 03:48:20;;;;;;;81.38;29.50;;;;;;;;;;5041223;28;20518;-60
2021/04/01 03:50:48;;;;;;;71.90;29.65;;;;;;;;;;5046518;28;20051;-60
2021/04/01 03:53:15;;;;;;;85.28;31.80;;;;;;;;;;5055438;28;20036;-60
2021/04/01 03:55:42;;;;;;;78.30;30.65;;;;;;;;;;5054270;28;20324;-60
2021/04/01 03:58:31;;;;;;;87.93;32.65;;;;;;;;;;5061819;28;20060;-60
2021/04/01 04:04:00;;;;;;;80.20;30.10;;;;;;;;;;5056409;28;20032;-60
2021/04/01 04:12:04;;;;;;;97.20;33.92;;;;;;;;;;5055022;28;20040;-60
2021/04/01 04:15:01;;;;;;;96.47;36.92;;;;;;;;;;5028498;28;20055;-61
2021/04/01 04:17:21;;;;;;;99.43;36.35;;;;;;;;;;5054972;28;20032;-60
2021/04/01 04:19:48;;;;;;;104.32;38.13;;;;;;;;;;5056433;28;20113;-60
2021/04/01 04:22:16;;;;;;;102.30;37.35;;;;;;;;;;5058009;28;20043;-61
2021/04/01 04:24:44;;;;;;;102.63;38.25;;;;;;;;;;5056717;28;20903;-60
2021/04/01 04:27:37;;;;;;;108.22;38.25;;;;;;;;;;5043538;28;20071;-60
2021/04/01 04:30:06;;;;;;;118.82;41.78;;;;;;;;;;5054313;28;20123;-59
2021/04/01 04:32:33;;;;;;;100.55;38.40;;;;;;;;;;5055859;28;21903;-61
2021/04/01 04:35:01;;;;;;;97.78;37.78;;;;;;;;;;5057668;28;20038;-61
2021/04/01 04:37:30;;;;;;;103.03;37.30;;;;;;;;;;5054575;28;20085;-61
2021/04/01 04:39:55;;;;;;;103.78;39.05;;;;;;;;;;5070855;28;20028;-60
2021/04/01 04:42:28;;;;;;;100.88;37.35;;;;;;;;;;5056275;28;20044;-61
2021/04/01 04:44:57;;;;;;;101.47;38.33;;;;;;;;;;5060352;28;20032;-61
2021/04/01 04:47:24;;;;;;;93.15;37.33;;;;;;;;;;5055326;28;20031;-60
2021/04/01 04:49:55;;;;;;;108.28;38.20;;;;;;;;;;5057645;28;21989;-59
2021/04/01 04:52:21;;;;;;;97.00;36.22;;;;;;;;;;5056146;28;20117;-60
2021/04/01 04:54:49;;;;;;;94.78;34.05;;;;;;;;;;5057291;28;20060;-62
2021/04/01 04:57:30;;;;;;;89.63;32.30;;;;;;;;;;5040448;28;20125;-61
2021/04/01 05:05:39;;;;;;;75.75;27.95;;;;;;;;;;5038477;28;19916;-60
2021/04/01 05:08:05;;;;;;;79.85;29.33;;;;;;;;;;5057019;28;20476;-60
2021/04/01 05:10:31;;;;;;;79.28;28.85;;;;;;;;;;5062026;28;21053;-61
2021/04/01 05:13:09;;;;;;;72.35;25.85;;;;;;;;;;5052860;28;20089;-61
2021/04/01 05:15:46;;;;;;;67.65;24.65;;;;;;;;;;5031895;28;20040;-61
2021/04/01 05:18:33;;;;;;;66.97;22.50;;;;;;;;;;5060687;28;20403;-62
2021/04/01 05:21:04;;;;;;;42.88;15.57;;;;;;;;;;5058309;28;20047;-60
2021/04/01 05:23:43;;;;;;;52.17;14.70;;;;;;;;;;5056676;28;20381;-61
2021/04/01 05:28:59;;;;;;;40.85;14.32;;;;;;;;;;5057166;28;20370;-60
2021/04/01 05:31:25;;;;;;;28.10;11.13;;;;;;;;;;5055436;28;20438;-62
2021/04/01 05:33:53;;;;;;;22.83;9.70;;;;;;;;;;5054335;28;20074;-61
2021/04/01 05:36:27;;;;;;;28.92;7.40;;;;;;;;;;5050461;28;20055;-60
2021/04/01 05:38:53;;;;;;;24.50;5.70;;;;;;;;;;5053310;28;20036;-61
2021/04/01 05:41:22;;;;;;;16.63;3.30;;;;;;;;;;5067556;28;20772;-61
2021/04/01 05:43:51;;;;;;;12.55;3.00;;;;;;;;;;5047793;28;20047;-61
2021/04/01 05:49:36;;;;;;;16.38;2.45;;;;;;;;;;5031083;28;20118;-61
2021/04/01 05:52:50;;;;;;;12.43;2.42;;;;;;;;;;5071689;28;20570;-61
2021/04/01 06:01:21;;;;;;;19.02;2.20;;;;;;;;;;5037622;28;20044;-61
2021/04/01 06:04:01;;;;;;;11.65;1.70;;;;;;;;;;5057150;28;20393;-61
2021/04/01 06:06:34;;;;;;;12.63;2.17;;;;;;;;;;5044947;28;20083;-61
2021/04/01 06:09:02;;;;;;;12.98;2.00;;;;;;;;;;5058960;28;20032;-61
2021/04/01 06:11:27;;;;;;;18.20;2.17;;;;;;;;;;5055759;28;20033;-61
2021/04/01 06:14:19;;;;;;;22.13;1.85;;;;;;;;;;5057574;28;20029;-60
2021/04/01 06:16:45;;;;;;;21.27;2.00;;;;;;;;;;5057894;28;20067;-60
2021/04/01 06:19:14;;;;;;;16.25;2.10;;;;;;;;;;5061785;28;20476;-61
2021/04/01 06:21:41;;;;;;;22.40;3.38;;;;;;;;;;5055420;28;20040;-61
2021/04/01 06:24:22;;;;;;;13.63;2.70;;;;;;;;;;5059252;28;20897;-61
2021/04/01 06:29:37;;;;;;;17.38;2.58;;;;;;;;;;5044387;28;20084;-61
2021/04/01 06:32:04;;;;;;;18.63;2.72;;;;;;;;;;5057820;28;20043;-61
2021/04/01 06:34:36;;;;;;;15.43;2.70;;;;;;;;;;5055968;28;20085;-62
2021/04/01 06:37:03;;;;;;;14.50;1.90;;;;;;;;;;5055483;28;20036;-60
2021/04/01 06:39:28;;;;;;;15.07;2.42;;;;;;;;;;5055000;28;20059;-61
2021/04/01 06:42:04;;;;;;;20.58;3.15;;;;;;;;;;5056814;28;20087;-61
2021/04/01 06:44:34;;;;;;;20.08;2.72;;;;;;;;;;5058012;28;20056;-61
2021/04/01 06:47:11;;;;;;;19.05;2.08;;;;;;;;;;5057001;28;20649;-61
2021/04/01 06:49:58;;;;;;;15.68;2.35;;;;;;;;;;5058424;28;20035;-61
2021/04/01 06:52:34;;;;;;;24.25;2.50;;;;;;;;;;5057381;28;20466;-61
2021/04/01 06:57:54;;;;;;;21.90;3.03;;;;;;;;;;5057426;28;20032;-59
2021/04/01 07:02:59;;;;;;;15.57;2.08;;;;;;;;;;5057735;28;20043;-61
2021/04/01 07:08:02;;;;;;;17.23;2.70;;;;;;;;;;5057973;28;20035;-62
2021/04/01 07:10:53;;;;;;;21.25;3.17;;;;;;;;;;5054817;28;20062;-62
2021/04/01 07:13:23;;;;;;;24.63;3.55;;;;;;;;;;5056108;28;20051;-61
2021/04/01 07:15:55;;;;;;;14.25;2.00;;;;;;;;;;5053383;28;20180;-61
2021/04/01 07:18:35;;;;;;;13.65;2.20;;;;;;;;;;5058887;28;20600;-61
2021/04/01 07:32:27;;;;;;;10.65;2.85;;;;;;;;;;5057470;28;21993;-61
2021/04/01 07:48:57;;;;;;;9.73;1.88;;;;;;;;;;5058383;28;20460;-61
2021/04/01 07:51:41;;;;;;;13.52;2.10;;;;;;;;;;5054981;28;20082;-62
2021/04/01 07:54:10;;;;;;;3.05;1.27;;;;;;;;;;5060182;28;20034;-62
2021/04/01 07:59:34;;;;;;;11.85;1.90;;;;;;;;;;5054769;28;20424;-61
2021/04/01 08:02:22;;;;;;;9.13;1.73;;;;;;;;;;5054750;28;20040;-62
2021/04/01 08:04:52;;;;;;;7.93;1.45;;;;;;;;;;5061908;28;20088;-62
2021/04/01 08:07:18;;;;;;;12.00;1.70;;;;;;;;;;5056210;28;20040;-63
2021/04/01 08:09:51;;;;;;;8.23;1.67;;;;;;;;;;5056545;28;20034;-63
2021/04/01 08:12:30;;;;;;;9.18;1.40;;;;;;;;;;5056765;28;20078;-65
2021/04/01 08:14:59;;;;;;;12.70;1.70;;;;;;;;;;5057841;28;20040;-63
2021/04/01 08:17:28;;;;;;;8.02;1.30;;;;;;;;;;5057473;28;20147;-63
2021/04/01 08:19:55;;;;;;;8.35;1.50;;;;;;;;;;5056703;28;20016;-62
2021/04/01 08:22:28;;;;;;;6.10;1.23;;;;;;;;;;5056775;28;20040;-62
2021/04/01 08:25:00;;;;;;;10.35;1.58;;;;;;;;;;5057152;28;20102;-62
2021/04/01 08:35:27;;;;;;;8.73;1.70;;;;;;;;;;5058498;28;20056;-63
2021/04/01 08:40:32;;;;;;;11.68;1.45;;;;;;;;;;5058014;28;20315;-63
2021/04/01 08:43:07;;;;;;;7.75;1.42;;;;;;;;;;5059373;28;20044;-63
2021/04/01 08:45:44;;;;;;;9.25;1.60;;;;;;;;;;5046060;28;20226;-63
2021/04/01 08:48:33;;;;;;;10.50;1.33;;;;;;;;;;5039596;28;20072;-62
2021/04/01 08:51:01;;;;;;;7.40;1.65;;;;;;;;;;5040065;28;21617;-63
2021/04/01 08:53:27;;;;;;;5.93;1.00;;;;;;;;;;5061122;28;20036;-62
2021/04/01 08:56:13;;;;;;;8.40;1.25;;;;;;;;;;5058481;28;20137;-64
2021/04/01 08:58:42;;;;;;;10.05;1.60;;;;;;;;;;5055416;28;20119;-62
2021/04/01 09:01:16;;;;;;;4.30;1.00;;;;;;;;;;5056331;28;20066;-63
2021/04/01 09:03:43;;;;;;;7.47;1.33;;;;;;;;;;5060862;28;20024;-62
2021/04/01 09:06:13;;;;;;;14.05;1.50;;;;;;;;;;5053062;28;20025;-63
2021/04/01 09:08:44;;;;;;;9.10;1.60;;;;;;;;;;5056645;28;20032;-62
2021/04/01 09:11:15;;;;;;;11.40;1.27;;;;;;;;;;5054991;28;20056;-62
2021/04/01 09:13:48;;;;;;;6.57;1.15;;;;;;;;;;5053389;28;20703;-63
2021/04/01 09:16:22;;;;;;;5.57;1.40;;;;;;;;;;5053595;28;20101;-64
2021/04/01 09:18:52;;;;;;;7.68;1.65;;;;;;;;;;5054028;28;20031;-63
2021/04/01 09:21:30;;;;;;;7.05;1.75;;;;;;;;;;5056813;28;20035;-63
2021/04/01 09:23:55;;;;;;;8.35;1.35;;;;;;;;;;5044401;28;20064;-63
2021/04/01 09:26:24;;;;;;;7.93;1.80;;;;;;;;;;5055160;28;20021;-62
2021/04/01 09:28:51;;;;;;;9.90;1.42;;;;;;;;;;5038979;28;20077;-62
2021/04/01 09:31:28;;;;;;;11.07;1.40;;;;;;;;;;5058194;28;20085;-65
2021/04/01 09:33:57;;;;;;;7.45;1.88;;;;;;;;;;5054133;28;20047;-63
2021/04/01 09:36:36;;;;;;;11.10;1.85;;;;;;;;;;5055407;28;20503;-63
2021/04/01 09:42:06;;;;;;;17.20;2.28;;;;;;;;;;5041251;28;20040;-60
2021/04/01 09:44:31;;;;;;;8.73;1.90;;;;;;;;;;5055996;28;20055;-60
2021/04/01 09:47:07;;;;;;;8.63;1.38;;;;;;;;;;5054940;28;20029;-59
2021/04/01 09:49:56;;;;;;;12.43;1.63;;;;;;;;;;5054188;28;20066;-61
2021/04/01 09:52:26;;;;;;;8.30;1.48;;;;;;;;;;5056256;28;20044;-61
2021/04/01 09:54:59;;;;;;;8.50;1.60;;;;;;;;;;5045392;28;20111;-61
2021/04/01 09:57:42;;;;;;;8.95;1.60;;;;;;;;;;5056375;28;20115;-61
2021/04/01 10:03:06;;;;;;;9.68;1.73;;;;;;;;;;5030640;28;20710;-61
2021/04/01 10:05:34;;;;;;;6.68;1.63;;;;;;;;;;5057449;28;20036;-60
2021/04/01 10:08:03;;;;;;;9.65;1.73;;;;;;;;;;5059424;28;20040;-61
2021/04/01 10:10:43;;;;;;;9.73;2.20;;;;;;;;;;5055408;28;20035;-61
2021/04/01 10:13:21;;;;;;;14.05;1.50;;;;;;;;;;5054413;28;20120;-61
2021/04/01 10:15:50;;;;;;;9.90;1.45;;;;;;;;;;5057036;28;20989;-61
2021/04/01 10:18:20;;;;;;;6.47;1.73;;;;;;;;;;5051958;28;20032;-62
2021/04/01 10:20:50;;;;;;;7.00;1.63;;;;;;;;;;5054243;28;20035;-60
2021/04/01 10:23:16;;;;;;;10.63;1.90;;;;;;;;;;5054634;28;20036;-61
2021/04/01 10:25:56;;;;;;;10.70;1.50;;;;;;;;;;5052771;28;20754;-61
2021/04/01 10:28:45;;;;;;;10.70;2.35;;;;;;;;;;5058376;28;20431;-61
2021/04/01 10:31:12;;;;;;;7.47;1.77;;;;;;;;;;5058299;28;20050;-62
2021/04/01 10:33:57;;;;;;;10.13;2.10;;;;;;;;;;5058547;28;20028;-62
2021/04/01 10:36:23;;;;;;;;;;;;;;;;;;5060681;28;20028;-61
2021/04/01 10:38:50;;;;;;;9.30;1.77;;;;;;;;;;5058960;28;19912;-61
2021/04/01 10:41:19;;;;;;;10.60;1.80;;;;;;;;;;5058100;28;20048;-63
2021/04/01 10:43:45;;;;;;;9.50;1.70;;;;;;;;;;5057261;28;20837;-63
2021/04/01 10:46:17;;;;;;;11.27;2.20;;;;;;;;;;5059281;28;20028;-62
2021/04/01 10:48:45;;;;;;;13.15;2.45;;;;;;;;;;5064731;28;20028;-61
2021/04/01 10:51:13;;;;;;;6.10;1.38;;;;;;;;;;5058383;28;20033;-61
2021/04/01 10:53:40;;;;;;;11.60;2.13;;;;;;;;;;5059746;28;20624;-61
2021/04/01 10:56:09;;;;;;;9.82;1.88;;;;;;;;;;5063650;28;20039;-62
2021/04/01 10:58:45;;;;;;;13.10;2.20;;;;;;;;;;5059667;28;20235;-61
2021/04/01 11:01:11;;;;;;;4.75;1.50;;;;;;;;;;5061690;28;20137;-64
2021/04/01 11:03:48;;;;;;;11.90;2.00;;;;;;;;;;5045181;28;20122;-64
2021/04/01 11:06:14;;;;;;;12.15;1.60;;;;;;;;;;5062281;28;20911;-62
2021/04/01 11:08:41;;;;;;;9.40;1.92;;;;;;;;;;5046232;28;20635;-63
2021/04/01 11:11:08;;;;;;;15.85;2.25;;;;;;;;;;5058936;28;20024;-62
2021/04/01 11:13:36;;;;;;;10.30;2.00;;;;;;;;;;5058268;28;20028;-62
2021/04/01 11:16:04;;;;;;;7.68;1.42;;;;;;;;;;5060297;28;20024;-63
2021/04/01 11:18:30;;;;;;;6.78;1.67;;;;;;;;;;5057241;28;20069;-62
2021/04/01 11:20:56;;;;;;;9.80;2.13;;;;;;;;;;5057720;28;20123;-63
2021/04/01 11:23:25;;;;;;;6.93;1.80;;;;;;;;;;5056553;28;20070;-63
2021/04/01 11:25:56;;;;;;;12.13;2.10;;;;;;;;;;5047084;28;20944;-63
2021/04/01 11:28:35;;;;;;;11.40;2.15;;;;;;;;;;5057284;28;20070;-63
2021/04/01 11:31:02;;;;;;;8.30;2.10;;;;;;;;;;5057259;28;20038;-63
2021/04/01 11:33:31;;;;;;;11.40;2.03;;;;;;;;;;5041924;28;20047;-63
2021/04/01 11:36:11;;;;;;;12.73;2.00;;;;;;;;;;5058531;28;20040;-63
2021/04/01 11:38:45;;;;;;;10.85;1.52;;;;;;;;;;5040680;28;20090;-61
2021/04/01 11:41:18;;;;;;;9.57;1.63;;;;;;;;;;5054385;28;20035;-61
2021/04/01 11:43:48;;;;;;;9.00;2.00;;;;;;;;;;5059410;28;20044;-62
2021/04/01 11:46:18;;;;;;;8.23;1.67;;;;;;;;;;5058238;28;20111;-62
2021/04/01 11:48:44;;;;;;;10.98;1.98;;;;;;;;;;5060923;28;20033;-63
2021/04/01 11:51:20;;;;;;;5.38;1.55;;;;;;;;;;5041868;28;20032;-62
2021/04/01 11:53:48;;;;;;;6.20;1.52;;;;;;;;;;5052722;28;20028;-64
2021/04/01 11:56:15;;;;;;;10.45;2.28;;;;;;;;;;5054658;28;20062;-64
2021/04/01 11:58:46;;;;;;;7.30;1.70;;;;;;;;;;5055015;28;20032;-64
2021/04/01 12:01:23;;;;;;;11.95;1.48;;;;;;;;;;5062402;28;20461;-62
2021/04/01 12:04:01;;;;;;;9.07;2.40;;;;;;;;;;5056552;28;20032;-63
2021/04/01 12:06:28;;;;;;;9.00;1.50;;;;;;;;;;5056250;28;20036;-64
2021/04/01 12:08:57;;;;;;;9.30;2.13;;;;;;;;;;5053279;28;20035;-63
2021/04/01 12:11:23;;;;;;;6.18;1.42;;;;;;;;;;5054754;28;20032;-63
2021/04/01 12:13:49;;;;;;;4.47;1.58;;;;;;;;;;5043716;28;20190;-63
2021/04/01 12:16:25;;;;;;;5.50;1.45;;;;;;;;;;5054667;28;20028;-64
2021/04/01 12:18:58;;;;;;;14.38;2.33;;;;;;;;;;5053196;28;20141;-64
2021/04/01 12:21:24;;;;;;;4.88;1.60;;;;;;;;;;5052485;28;20040;-65
2021/04/01 12:23:51;;;;;;;10.18;1.65;;;;;;;;;;5062244;28;20373;-64
2021/04/01 12:26:19;;;;;;;10.82;2.00;;;;;;;;;;5056673;28;20051;-63
2021/04/01 12:28:58;;;;;;;9.32;1.63;;;;;;;;;;5053913;28;20143;-63
2021/04/01 12:31:27;;;;;;;5.20;1.02;;;;;;;;;;5056515;28;20047;-64
2021/04/01 12:33:59;;;;;;;9.45;1.50;;;;;;;;;;5057446;28;20056;-66
2021/04/01 12:36:37;;;;;;;6.30;1.45;;;;;;;;;;5044359;28;20044;-63
2021/04/01 12:39:06;;;;;;;10.05;1.10;;;;;;;;;;5055370;28;20025;-63
2021/04/01 12:41:33;;;;;;;4.60;0.93;;;;;;;;;;5052193;28;20023;-63
2021/04/01 12:44:03;;;;;;;4.45;1.38;;;;;;;;;;5040065;28;20135;-64
2021/04/01 12:46:36;;;;;;;5.45;1.23;;;;;;;;;;5052751;28;20032;-62
2021/04/01 12:49:03;;;;;;;5.15;0.90;;;;;;;;;;5059739;28;20063;-62
2021/04/01 12:51:39;;;;;;;4.30;1.27;;;;;;;;;;5039300;28;20123;-62
2021/04/01 12:54:11;;;;;;;4.63;0.90;;;;;;;;;;5054167;28;20075;-62
2021/04/01 12:56:40;;;;;;;2.78;0.70;;;;;;;;;;5052176;28;20749;-62
2021/04/01 13:01:40;;;;;;;5.00;1.35;;;;;;;;;;5053075;28;21947;-63
2021/04/01 13:04:11;;;;;;;5.75;0.85;;;;;;;;;;5059230;28;20024;-65
2021/04/01 13:09:34;;;;;;;4.75;0.95;;;;;;;;;;5055350;28;20075;-64
2021/04/01 13:12:08;;;;;;;3.90;1.23;;;;;;;;;;5056702;28;21049;-64
2021/04/01 13:14:33;;;;;;;3.67;1.10;;;;;;;;;;5043701;28;20218;-62
2021/04/01 13:17:01;;;;;;;3.75;0.90;;;;;;;;;;5054269;28;20055;-62
2021/04/01 13:19:29;;;;;;;5.30;1.35;;;;;;;;;;5030436;28;20066;-63
2021/04/01 13:22:06;;;;;;;2.97;1.35;;;;;;;;;;5054426;28;20930;-61
2021/04/01 13:24:39;;;;;;;5.78;1.20;;;;;;;;;;5055675;28;20032;-61
2021/04/01 13:27:09;;;;;;;7.13;1.23;;;;;;;;;;5041072;28;20032;-63
2021/04/01 13:29:40;;;;;;;6.60;1.30;;;;;;;;;;5039357;28;20695;-63
2021/04/01 13:32:19;;;;;;;11.02;1.55;;;;;;;;;;5054966;28;20037;-61
2021/04/01 13:34:57;;;;;;;3.72;0.93;;;;;;;;;;5072484;28;20157;-62
2021/04/01 13:37:33;;;;;;;6.88;0.63;;;;;;;;;;5056324;28;20135;-64
2021/04/01 13:40:36;;;;;;;3.88;1.10;;;;;;;;;;5055852;28;20040;-63
2021/04/01 13:42:56;;;;;;;11.13;1.13;;;;;;;;;;5039558;28;21891;-62
2021/04/01 13:45:25;;;;;;;3.35;0.98;;;;;;;;;;5056933;28;20123;-62
2021/04/01 13:48:03;;;;;;;7.10;1.20;;;;;;;;;;5039416;28;20029;-65
2021/04/01 13:50:35;;;;;;;5.57;1.25;;;;;;;;;;5055914;28;20087;-64
2021/04/01 13:55:37;;;;;;;8.50;1.20;;;;;;;;;;5052698;28;20119;-63
2021/04/01 14:04:03;;;;;;;10.65;1.30;;;;;;;;;;5056560;28;20702;-64
2021/04/01 14:09:26;;;;;;;10.48;1.30;;;;;;;;;;5057382;28;20056;-61
2021/04/01 14:11:54;;;;;;;12.32;1.63;;;;;;;;;;5044402;28;20963;-63
2021/04/01 14:14:23;;;;;;;9.48;1.48;;;;;;;;;;5057123;28;20369;-63
2021/04/01 14:16:54;;;;;;;11.07;1.77;;;;;;;;;;5059642;28;20119;-62
2021/04/01 14:19:25;;;;;;;7.28;1.73;;;;;;;;;;5057530;28;20036;-62
2021/04/01 14:21:54;;;;;;;7.43;1.38;;;;;;;;;;5057585;28;20039;-64
2021/04/01 14:24:26;;;;;;;5.90;1.08;;;;;;;;;;5060290;28;20726;-63
2021/04/01 14:29:41;;;;;;;8.30;0.88;;;;;;;;;;5057972;28;20617;-62
2021/04/01 14:32:10;;;;;;;5.07;1.30;;;;;;;;;;5056131;28;20048;-62
2021/04/01 14:34:36;;;;;;;8.95;1.30;;;;;;;;;;5059399;28;20033;-62
2021/04/01 14:37:06;;;;;;;6.85;1.42;;;;;;;;;;5059274;28;20039;-64
2021/04/01 14:39:34;;;;;;;7.53;1.27;;;;;;;;;;5058717;28;20036;-63
2021/04/01 14:42:03;;;;;;;4.82;1.40;;;;;;;;;;5045268;28;20503;-63
2021/04/01 14:44:30;;;;;;;6.65;1.00;;;;;;;;;;5056758;28;21207;-63
2021/04/01 14:46:55;;;;;;;4.70;1.40;;;;;;;;;;5059821;28;20030;-63
2021/04/01 14:49:21;;;;;;;4.55;1.15;;;;;;;;;;5058058;28;20036;-62
2021/04/01 14:51:47;;;;;;;11.68;1.48;;;;;;;;;;5046562;28;20036;-63
2021/04/01 14:54:16;;;;;;;4.82;1.30;;;;;;;;;;5057279;28;20561;-63
2021/04/01 14:56:47;;;;;;;4.63;1.08;;;;;;;;;;5061456;28;20024;-62
2021/04/01 14:59:23;;;;;;;6.80;1.58;;;;;;;;;;5060397;28;20067;-63
2021/04/01 15:01:50;;;;;;;6.57;1.55;;;;;;;;;;5061823;28;20028;-63
2021/04/01 15:04:18;;;;;;;11.48;1.65;;;;;;;;;;5057508;28;20043;-62
2021/04/01 15:06:49;;;;;;;9.13;1.70;;;;;;;;;;5059366;28;20073;-62
2021/04/01 15:09:18;;;;;;;5.40;1.27;;;;;;;;;;5040674;28;20028;-62
2021/04/01 15:11:44;;;;;;;9.23;1.40;;;;;;;;;;5056673;28;20102;-62
2021/04/01 15:14:13;;;;;;;7.68;1.30;;;;;;;;;;5060997;28;20646;-62
2021/04/01 15:16:39;;;;;;;7.80;1.83;;;;;;;;;;5058752;28;20931;-62
2021/04/01 15:19:12;;;;;;;13.50;3.35;;;;;;;;;;5057225;28;20139;-63
2021/04/01 15:21:40;;;;;;;8.95;1.80;;;;;;;;;;5057049;28;20062;-62
2021/04/01 15:24:07;;;;;;;5.43;1.40;;;;;;;;;;5055353;28;21153;-62
2021/04/01 15:26:33;;;;;;;6.30;1.67;;;;;;;;;;5058295;28;20020;-62
2021/04/01 15:29:01;;;;;;;4.85;1.30;;;;;;;;;;5043056;28;20056;-62
2021/04/01 15:31:29;;;;;;;7.35;1.92;;;;;;;;;;5038574;28;20043;-62
2021/04/01 15:33:57;;;;;;;12.43;3.38;;;;;;;;;;5042091;28;20444;-64
2021/04/01 15:36:23;;;;;;;6.78;2.20;;;;;;;;;;5056756;28;20407;-62
2021/04/01 15:38:51;;;;;;;8.63;1.63;;;;;;;;;;5057502;28;20474;-62
2021/04/01 15:41:19;;;;;;;12.45;1.90;;;;;;;;;;5047640;28;20652;-62
2021/04/01 15:43:47;;;;;;;15.75;4.05;;;;;;;;;;5058188;28;20136;-62
2021/04/01 15:46:13;;;;;;;11.15;3.08;;;;;;;;;;5040146;28;20779;-63
2021/04/01 15:48:39;;;;;;;6.60;1.65;;;;;;;;;;5057273;28;20024;-62
2021/04/01 15:51:06;;;;;;;8.07;2.03;;;;;;;;;;5057000;28;20487;-62
2021/04/01 15:53:34;;;;;;;7.15;1.38;;;;;;;;;;5060779;28;20028;-62
2021/04/01 15:56:00;;;;;;;3.70;1.40;;;;;;;;;;5056874;28;20055;-62
2021/04/01 15:58:31;;;;;;;9.38;1.35;;;;;;;;;;5056104;28;20146;-62
2021/04/01 16:00:59;;;;;;;9.45;1.23;;;;;;;;;;5057514;28;20029;-61
2021/04/01 16:03:27;;;;;;;9.45;1.60;;;;;;;;;;5056676;28;20205;-62
2021/04/01 16:05:55;;;;;;;4.20;1.20;;;;;;;;;;5040002;28;20522;-62
2021/04/01 16:08:24;;;;;;;3.95;1.05;;;;;;;;;;5059015;28;20103;-61
2021/04/01 16:10:54;;;;;;;8.15;1.63;;;;;;;;;;5057113;28;20056;-62
2021/04/01 16:13:20;;;;;;;7.00;1.23;;;;;;;;;;5056596;28;20119;-62
2021/04/01 16:15:48;;;;;;;5.05;1.77;;;;;;;;;;5056356;28;20044;-62
2021/04/01 16:18:14;;;;;;;11.60;1.83;;;;;;;;;;5058134;28;20047;-62
2021/04/01 16:20:40;;;;;;;5.20;1.10;;;;;;;;;;5057413;28;20040;-63
2021/04/01 16:23:06;;;;;;;10.95;1.77;;;;;;;;;;5056114;28;20032;-61
2021/04/01 16:25:32;;;;;;;8.93;2.20;;;;;;;;;;5055939;28;20031;-62
2021/04/01 16:27:58;;;;;;;2.83;1.33;;;;;;;;;;5053581;28;20396;-62